createdAt,value
2023-02-02T00:02:02.810Z,98248.47
2023-02-02T00:04:30.883Z,98253.00
2023-02-02T00:06:58.409Z,98251.50
2023-02-02T00:09:30.162Z,98254.13
2023-02-02T00:11:57.762Z,98244.19
2023-02-02T00:14:25.182Z,98257.03
2023-02-02T00:16:53.322Z,98250.53
2023-02-02T00:19:26.633Z,98244.84
2023-02-02T00:21:54.607Z,98248.31
2023-02-02T00:24:22.007Z,98249.69
2023-02-02T00:26:50.383Z,98250.38
2023-02-02T00:29:19.021Z,98244.03
2023-02-02T00:31:47.864Z,98239.59
2023-02-02T00:34:15.578Z,98236.53
2023-02-02T00:36:43.031Z,98245.41
2023-02-02T00:39:10.910Z,98247.91
2023-02-02T00:41:37.973Z,98249.56
2023-02-02T00:44:23.719Z,98249.28
2023-02-02T00:46:50.804Z,98249.13
2023-02-02T00:49:17.822Z,98246.38
2023-02-02T00:51:44.843Z,98246.91
2023-02-02T00:54:11.864Z,98241.41
2023-02-02T00:56:38.801Z,98237.63
2023-02-02T00:59:05.783Z,98246.50
2023-02-02T01:01:32.720Z,98244.44
2023-02-02T01:04:00.256Z,98248.72
2023-02-02T01:06:27.297Z,98243.19
2023-02-02T01:08:54.314Z,98248.16
2023-02-02T01:11:21.629Z,98238.91
2023-02-02T01:13:48.531Z,98236.00
2023-02-02T01:16:16.234Z,98237.63
2023-02-02T01:18:43.776Z,98234.34
2023-02-02T01:21:11.685Z,98235.44
2023-02-02T01:23:39.275Z,98242.38
2023-02-02T01:26:07.733Z,98236.28
2023-02-02T01:28:35.094Z,98240.84
2023-02-02T01:31:06.802Z,98233.25
2023-02-02T01:33:33.876Z,98230.63
2023-02-02T01:36:03.413Z,98229.22
2023-02-02T01:38:30.364Z,98229.91
2023-02-02T01:40:57.567Z,98231.03
2023-02-02T01:43:27.702Z,98223.25
2023-02-02T01:45:55.600Z,98233.34
2023-02-02T01:48:25.073Z,98230.47
2023-02-02T01:50:56.091Z,98231.28
2023-02-02T01:53:23.451Z,98216.06
2023-02-02T01:55:51.214Z,98236.13
2023-02-02T01:58:21.043Z,98222.56
2023-02-02T02:00:48.711Z,98233.50
2023-02-02T02:03:17.367Z,98233.78
2023-02-02T02:05:56.787Z,98225.75
2023-02-02T02:08:36.291Z,98231.84
2023-02-02T02:11:03.349Z,98227.41
2023-02-02T02:13:51.186Z,98230.72
2023-02-02T02:16:23.428Z,98231.97
2023-02-02T02:18:58.702Z,98232.94
2023-02-02T02:21:45.323Z,98235.31
2023-02-02T02:24:46.561Z,98222.97
2023-02-02T02:27:14.095Z,98233.75
2023-02-02T02:29:50.211Z,98238.50
2023-02-02T02:32:25.257Z,98236.28
2023-02-02T02:35:09.965Z,98237.94
2023-02-02T02:37:46.146Z,98231.84
2023-02-02T02:40:46.528Z,98237.09
2023-02-02T02:43:17.020Z,98236.81
2023-02-02T02:45:44.841Z,98232.25
2023-02-02T02:48:13.772Z,98234.59
2023-02-02T02:50:40.649Z,98230.16
2023-02-02T02:53:11.674Z,98237.63
2023-02-02T02:56:01.035Z,98242.06
2023-02-02T02:58:47.203Z,98246.22
2023-02-02T03:01:35.020Z,98248.56
2023-02-02T03:04:25.341Z,98247.88
2023-02-02T03:06:55.558Z,98245.09
2023-02-02T03:09:25.739Z,98246.22
2023-02-02T03:11:52.714Z,98248.56
2023-02-02T03:14:19.646Z,98252.31
2023-02-02T03:16:46.701Z,98249.69
2023-02-02T03:19:13.746Z,98248.28
2023-02-02T03:21:40.729Z,98246.63
2023-02-02T03:24:07.966Z,98247.22
2023-02-02T03:26:35.601Z,98249.00
2023-02-02T03:29:02.882Z,98244.69
2023-02-02T03:31:30.046Z,98251.34
2023-02-02T03:33:57.195Z,98246.66
2023-02-02T03:36:24.069Z,98253.97
2023-02-02T03:38:51.016Z,98254.69
2023-02-02T03:41:18.041Z,98257.31
2023-02-02T03:43:46.032Z,98257.44
2023-02-02T03:46:13.166Z,98259.66
2023-02-02T03:48:40.308Z,98251.19
2023-02-02T03:53:49.405Z,98261.88
2023-02-02T03:56:16.758Z,98258.66
2023-02-02T03:58:43.773Z,98264.91
2023-02-02T04:01:12.104Z,98260.34
2023-02-02T04:03:39.109Z,98261.59
2023-02-02T04:06:06.414Z,98265.88
2023-02-02T04:08:34.355Z,98265.63
2023-02-02T04:11:01.510Z,98266.97
2023-02-02T04:13:28.722Z,98254.69
2023-02-02T04:16:00.258Z,98264.22
2023-02-02T04:18:27.430Z,98262.69
2023-02-02T04:21:04.909Z,98254.81
2023-02-02T04:23:32.472Z,98262.69
2023-02-02T04:26:01.656Z,98267.28
2023-02-02T04:28:28.972Z,98268.78
2023-02-02T04:30:56.654Z,98268.25
2023-02-02T04:33:30.366Z,98265.31
2023-02-02T04:35:57.468Z,98264.78
2023-02-02T04:38:24.615Z,98266.44
2023-02-02T04:40:52.701Z,98265.63
2023-02-02T04:43:20.223Z,98265.63
2023-02-02T04:45:52.944Z,98260.34
2023-02-02T04:48:20.136Z,98266.84
2023-02-02T04:50:47.410Z,98268.25
2023-02-02T04:53:14.858Z,98275.16
2023-02-02T04:55:43.015Z,98282.06
2023-02-02T04:58:10.192Z,98281.91
2023-02-02T05:00:37.352Z,98282.88
2023-02-02T05:03:04.398Z,98286.88
2023-02-02T05:05:31.628Z,98286.88
2023-02-02T05:08:00.426Z,98281.91
2023-02-02T05:10:27.873Z,98292.69
2023-02-02T05:12:55.385Z,98284.94
2023-02-02T05:18:05.139Z,98284.41
2023-02-02T05:20:34.864Z,98287.97
2023-02-02T05:23:01.976Z,98282.72
2023-02-02T05:25:29.467Z,98292.16
2023-02-02T05:27:56.725Z,98296.19
2023-02-02T05:30:23.898Z,98299.63
2023-02-02T05:32:56.163Z,98300.72
2023-02-02T05:35:23.560Z,98300.19
2023-02-02T05:37:57.913Z,98286.19
2023-02-02T05:40:26.330Z,98298.78
2023-02-02T05:42:53.393Z,98301.84
2023-02-02T05:45:20.760Z,98289.25
2023-02-02T05:47:47.895Z,98301.84
2023-02-02T05:50:14.990Z,98299.22
2023-02-02T05:52:45.155Z,98290.50
2023-02-02T05:57:53.045Z,98295.19
2023-02-02T06:00:20.275Z,98297.69
2023-02-02T06:02:49.924Z,98297.97
2023-02-02T06:05:17.446Z,98308.78
2023-02-02T06:07:44.488Z,98309.59
2023-02-02T06:10:11.596Z,98317.63
2023-02-02T06:15:21.573Z,98323.59
2023-02-02T06:17:48.505Z,98312.13
2023-02-02T06:20:17.276Z,98316.53
2023-02-02T06:22:44.318Z,98316.53
2023-02-02T06:25:11.398Z,98319.31
2023-02-02T06:27:39.017Z,98323.19
2023-02-02T06:30:06.389Z,98325.41
2023-02-02T06:32:34.375Z,98328.56
2023-02-02T06:35:01.396Z,98327.59
2023-02-02T06:37:37.310Z,98329.81
2023-02-02T06:40:04.770Z,98328.44
2023-02-02T06:42:31.788Z,98320.28
2023-02-02T06:44:58.820Z,98320.16
2023-02-02T06:47:26.964Z,98313.91
2023-02-02T06:49:54.572Z,98327.63
2023-02-02T06:52:21.785Z,98323.50
2023-02-02T06:54:48.766Z,98327.94
2023-02-02T06:57:16.070Z,98315.47
2023-02-02T06:59:43.290Z,98327.06
2023-02-02T07:02:13.658Z,98329.72
2023-02-02T07:04:41.260Z,98326.13
2023-02-02T07:07:08.511Z,98328.19
2023-02-02T07:09:36.193Z,98327.22
2023-02-02T07:12:03.287Z,98337.59
2023-02-02T07:14:30.409Z,98335.69
2023-02-02T07:16:57.488Z,98340.38
2023-02-02T07:19:34.366Z,98339.56
2023-02-02T07:22:01.472Z,98335.28
2023-02-02T07:24:29.296Z,98344.53
2023-02-02T07:26:58.479Z,98335.38
2023-02-02T07:29:26.487Z,98340.66
2023-02-02T07:31:53.856Z,98348.53
2023-02-02T07:34:21.069Z,98342.59
2023-02-02T07:36:49.346Z,98342.34
2023-02-02T07:39:35.668Z,98343.41
2023-02-02T07:42:02.697Z,98347.88
2023-02-02T07:44:36.060Z,98345.91
2023-02-02T07:47:03.447Z,98345.91
2023-02-02T07:49:30.406Z,98344.13
2023-02-02T07:51:58.162Z,98353.41
2023-02-02T07:54:25.389Z,98352.31
2023-02-02T07:56:52.389Z,98338.16
2023-02-02T07:59:19.859Z,98342.59
2023-02-02T08:01:47.144Z,98340.94
2023-02-02T08:04:14.828Z,98339.13
2023-02-02T08:06:41.988Z,98343.41
2023-02-02T08:09:09.812Z,98349.09
2023-02-02T08:11:37.677Z,98338.84
2023-02-02T08:14:04.965Z,98339.78
2023-02-02T08:16:32.897Z,98348.94
2023-02-02T08:18:59.960Z,98353.50
2023-02-02T08:21:26.962Z,98351.28
2023-02-02T08:23:54.295Z,98339.66
2023-02-02T08:26:23.128Z,98339.38
2023-02-02T08:28:53.253Z,98339.25
2023-02-02T08:31:25.019Z,98341.59
2023-02-02T08:33:57.285Z,98346.75
2023-02-02T08:36:27.630Z,98355.56
2023-02-02T08:38:54.969Z,98349.75
2023-02-02T08:41:23.480Z,98354.88
2023-02-02T08:43:50.874Z,98351.13
2023-02-02T08:46:19.543Z,98351.97
2023-02-02T08:48:47.367Z,98345.00
2023-02-02T08:51:15.626Z,98345.44
2023-02-02T08:53:42.882Z,98341.72
2023-02-02T08:56:11.689Z,98339.09
2023-02-02T08:58:38.935Z,98335.06
2023-02-02T09:01:11.999Z,98341.72
2023-02-02T09:03:40.610Z,98336.28
2023-02-02T09:06:09.081Z,98339.28
2023-02-02T09:08:36.713Z,98346.34
2023-02-02T09:11:08.298Z,98341.19
2023-02-02T09:13:35.992Z,98346.59
2023-02-02T09:16:04.358Z,98341.19
2023-02-02T09:18:31.672Z,98341.63
2023-02-02T09:21:02.627Z,98333.78
2023-02-02T09:23:31.330Z,98347.78
2023-02-02T09:25:58.422Z,98332.47
2023-02-02T09:28:25.514Z,98342.91
2023-02-02T09:30:52.625Z,98344.97
2023-02-02T09:33:19.667Z,98346.50
2023-02-02T09:35:55.542Z,98339.28
2023-02-02T09:38:23.233Z,98342.91
2023-02-02T09:40:50.384Z,98346.38
2023-02-02T09:43:44.869Z,98336.94
2023-02-02T09:46:26.112Z,98336.53
2023-02-02T09:49:08.349Z,98334.66
2023-02-02T09:51:42.140Z,98331.66
2023-02-02T09:54:18.099Z,98336.41
2023-02-02T09:56:47.211Z,98331.38
2023-02-02T09:59:24.476Z,98326.69
2023-02-02T10:01:55.664Z,98330.28
2023-02-02T10:04:26.242Z,98330.56
2023-02-02T10:06:55.885Z,98321.28
2023-02-02T10:09:34.096Z,98325.03
2023-02-02T10:12:19.753Z,98323.34
2023-02-02T10:14:51.440Z,98321.19
2023-02-02T10:17:26.395Z,98324.31
2023-02-02T10:19:55.664Z,98316.41
2023-02-02T10:25:12.812Z,98315.94
2023-02-02T10:27:41.218Z,98325.13
2023-02-02T10:30:28.516Z,98316.59
2023-02-02T10:33:03.807Z,98317.56
2023-02-02T10:35:43.263Z,98312.03
2023-02-02T10:38:28.997Z,98315.75
2023-02-02T10:41:02.567Z,98308.63
2023-02-02T10:43:52.312Z,98311.06
2023-02-02T10:46:52.330Z,98311.34
2023-02-02T10:49:26.193Z,98308.97
2023-02-02T10:51:59.672Z,98311.19
2023-02-02T10:54:54.873Z,98309.22
2023-02-02T10:57:46.033Z,98304.91
2023-02-02T11:00:16.073Z,98304.69
2023-02-02T11:02:43.203Z,98312.66
2023-02-02T11:05:47.825Z,98304.41
2023-02-02T11:08:30.165Z,98300.44
2023-02-02T11:10:58.583Z,98292.97
2023-02-02T11:13:29.138Z,98294.84
2023-02-02T11:16:42.032Z,98298.63
2023-02-02T11:19:18.113Z,98305.00
2023-02-02T11:21:49.387Z,98304.13
2023-02-02T11:24:19.547Z,98301.31
2023-02-02T11:26:49.324Z,98311.66
2023-02-02T11:29:23.570Z,98305.41
2023-02-02T11:31:51.357Z,98318.63
2023-02-02T11:34:20.495Z,98312.09
2023-02-02T11:37:07.950Z,98329.03
2023-02-02T11:39:34.916Z,98331.03
2023-02-02T11:42:04.355Z,98323.72
2023-02-02T11:44:32.821Z,98323.03
2023-02-02T11:47:00.770Z,98340.25
2023-02-02T11:49:28.569Z,98329.72
2023-02-02T11:51:57.263Z,98332.94
2023-02-02T11:54:29.570Z,98328.38
2023-02-02T11:56:59.246Z,98333.13
2023-02-02T11:59:37.254Z,98333.38
2023-02-02T12:02:14.011Z,98335.16
2023-02-02T12:04:41.827Z,98338.69
2023-02-02T12:07:19.866Z,98334.09
2023-02-02T12:09:46.947Z,98333.56
2023-02-02T12:12:19.828Z,98340.47
2023-02-02T12:15:01.995Z,98331.00
2023-02-02T12:17:45.702Z,98333.03
2023-02-02T12:20:15.996Z,98334.31
2023-02-02T12:23:01.765Z,98339.06
2023-02-02T12:25:31.856Z,98339.56
2023-02-02T12:28:04.068Z,98342.97
2023-02-02T12:30:39.273Z,98339.50
2023-02-02T12:33:12.716Z,98338.75
2023-02-02T12:35:50.347Z,98328.47
2023-02-02T12:38:20.409Z,98332.59
2023-02-02T12:40:50.206Z,98337.31
2023-02-02T12:43:27.580Z,98336.53
2023-02-02T12:46:03.708Z,98341.72
2023-02-02T12:48:39.154Z,98342.00
2023-02-02T12:51:06.327Z,98340.78
2023-02-02T12:53:42.794Z,98349.28
2023-02-02T12:56:12.855Z,98352.75
2023-02-02T12:58:47.089Z,98348.13
2023-02-02T13:01:32.471Z,98351.91
2023-02-02T13:04:22.779Z,98353.72
2023-02-02T13:07:10.538Z,98344.84
2023-02-02T13:09:50.047Z,98347.31
2023-02-02T13:12:19.882Z,98349.97
2023-02-02T13:14:49.087Z,98349.44
2023-02-02T13:17:24.270Z,98351.22
2023-02-02T13:19:56.589Z,98350.84
2023-02-02T13:22:29.234Z,98356.53
2023-02-02T13:25:00.217Z,98348.91
2023-02-02T13:27:30.755Z,98351.81
2023-02-02T13:30:02.531Z,98357.09
2023-02-02T13:32:42.934Z,98352.47
2023-02-02T13:35:18.581Z,98346.66
2023-02-02T13:38:00.890Z,98344.16
2023-02-02T13:40:32.310Z,98349.56
2023-02-02T13:43:06.032Z,98345.72
2023-02-02T13:45:51.823Z,98344.06
2023-02-02T13:48:18.785Z,98349.03
2023-02-02T13:51:03.037Z,98349.75
2023-02-02T13:53:36.317Z,98353.63
2023-02-02T13:56:08.413Z,98355.56
2023-02-02T13:58:35.988Z,98357.78
2023-02-02T14:01:05.007Z,98359.19
2023-02-02T14:03:38.797Z,98355.72
2023-02-02T14:06:08.987Z,98354.22
2023-02-02T14:08:36.924Z,98352.53
2023-02-02T14:11:05.812Z,98364.19
2023-02-02T14:14:02.501Z,98356.44
2023-02-02T14:16:32.257Z,98358.34
2023-02-02T14:19:04.219Z,98367.50
2023-02-02T14:21:34.228Z,98365.16
2023-02-02T14:24:05.250Z,98367.66
2023-02-02T14:26:47.049Z,98368.34
2023-02-02T14:29:32.310Z,98369.03
2023-02-02T14:32:02.694Z,98368.34
2023-02-02T14:34:35.927Z,98377.47
2023-02-02T14:37:03.025Z,98381.66
2023-02-02T14:39:34.238Z,98381.81
2023-02-02T14:42:30.050Z,98372.50
2023-02-02T14:45:13.091Z,98378.75
2023-02-02T14:47:59.552Z,98383.47
2023-02-02T14:50:27.350Z,98394.16
2023-02-02T14:53:22.924Z,98384.97
2023-02-02T14:56:10.350Z,98398.56
2023-02-02T14:58:40.614Z,98395.66
2023-02-02T15:01:14.145Z,98400.50
2023-02-02T15:03:44.790Z,98398.53
2023-02-02T15:06:15.436Z,98393.28
2023-02-02T15:08:42.500Z,98399.25
2023-02-02T15:11:28.463Z,98403.81
2023-02-02T15:14:07.272Z,98393.84
2023-02-02T15:16:38.528Z,98398.84
2023-02-02T15:19:32.762Z,98405.34
2023-02-02T15:22:03.684Z,98401.19
2023-02-02T15:24:32.186Z,98402.31
2023-02-02T15:27:04.963Z,98406.03
2023-02-02T15:29:36.247Z,98408.13
2023-02-02T15:32:06.001Z,98404.94
2023-02-02T15:34:44.533Z,98406.88
2023-02-02T15:37:15.633Z,98412.44
2023-02-02T15:40:02.555Z,98409.38
2023-02-02T15:42:55.409Z,98412.44
2023-02-02T15:45:28.897Z,98419.19
2023-02-02T15:48:07.143Z,98424.88
2023-02-02T15:50:34.524Z,98421.97
2023-02-02T15:53:01.802Z,98422.13
2023-02-02T15:55:32.003Z,98421.16
2023-02-02T15:57:59.424Z,98421.16
2023-02-02T16:03:24.106Z,98424.75
2023-02-02T16:05:58.744Z,98427.97
2023-02-02T16:08:28.017Z,98434.31
2023-02-02T16:11:05.327Z,98440.25
2023-02-02T16:13:33.772Z,98436.69
2023-02-02T16:16:03.925Z,98440.56
2023-02-02T16:18:31.654Z,98440.97
2023-02-02T16:21:01.215Z,98433.50
2023-02-02T16:23:35.529Z,98431.84
2023-02-02T16:26:08.048Z,98434.06
2023-02-02T16:28:36.789Z,98432.25
2023-02-02T16:31:11.895Z,98427.66
2023-02-02T16:33:54.942Z,98433.47
2023-02-02T16:37:06.874Z,98439.44
2023-02-02T16:39:35.009Z,98442.22
2023-02-02T16:42:20.592Z,98442.63
2023-02-02T16:44:49.094Z,98447.91
2023-02-02T16:47:28.339Z,98442.59
2023-02-02T16:50:16.543Z,98450.78
2023-02-02T16:52:49.793Z,98458.16
2023-02-02T16:55:17.776Z,98457.19
2023-02-02T16:57:45.689Z,98469.78
2023-02-02T17:00:19.413Z,98472.56
2023-02-02T17:02:48.354Z,98464.53
2023-02-02T17:05:44.594Z,98468.81
2023-02-02T17:08:11.609Z,98455.25
2023-02-02T17:10:39.861Z,98470.50
2023-02-02T17:13:25.642Z,98475.22
2023-02-02T17:15:53.098Z,98470.63
2023-02-02T17:18:19.996Z,98471.72
2023-02-02T17:20:47.429Z,98474.63
2023-02-02T17:23:16.781Z,98469.91
2023-02-02T17:25:44.361Z,98482.50
2023-02-02T17:28:12.944Z,98481.81
2023-02-02T17:30:41.438Z,98477.50
2023-02-02T17:33:16.362Z,98482.50
2023-02-02T17:35:53.812Z,98479.63
2023-02-02T17:38:23.538Z,98480.44
2023-02-02T17:40:52.093Z,98492.47
2023-02-02T17:43:23.700Z,98489.97
2023-02-02T17:45:51.466Z,98489.72
2023-02-02T17:48:18.783Z,98493.88
2023-02-02T17:50:46.040Z,98492.63
2023-02-02T17:53:14.317Z,98492.47
2023-02-02T17:55:44.623Z,98489.41
2023-02-02T17:58:14.587Z,98494.41
2023-02-02T18:00:42.259Z,98489.56
2023-02-02T18:03:14.485Z,98495.25
2023-02-02T18:05:43.631Z,98489.16
2023-02-02T18:08:14.722Z,98483.47
2023-02-02T18:10:42.359Z,98489.41
2023-02-02T18:13:16.770Z,98494.00
2023-02-02T18:15:44.075Z,98489.97
2023-02-02T18:18:12.646Z,98485.25
2023-02-02T18:20:43.411Z,98493.00
2023-02-02T18:23:11.103Z,98492.44
2023-02-02T18:25:39.558Z,98491.94
2023-02-02T18:28:07.060Z,98493.59
2023-02-02T18:30:35.028Z,98490.41
2023-02-02T18:33:02.342Z,98490.53
2023-02-02T18:35:29.344Z,98496.22
2023-02-02T18:37:56.236Z,98488.47
2023-02-02T18:40:23.305Z,98501.03
2023-02-02T18:42:50.581Z,98500.44
2023-02-02T18:45:17.581Z,98509.31
2023-02-02T18:47:44.455Z,98508.53
2023-02-02T18:50:11.952Z,98511.66
2023-02-02T18:52:39.495Z,98503.78
2023-02-02T18:55:06.563Z,98503.22
2023-02-02T18:57:33.597Z,98510.28
2023-02-02T19:00:00.585Z,98510.03
2023-02-02T19:02:27.541Z,98515.28
2023-02-02T19:05:13.565Z,98511.59
2023-02-02T19:07:55.803Z,98512.38
2023-02-02T19:10:23.735Z,98511.22
2023-02-02T19:13:05.719Z,98517.03
2023-02-02T19:15:34.496Z,98517.72
2023-02-02T19:18:01.462Z,98515.91
2023-02-02T19:20:29.743Z,98507.06
2023-02-02T19:23:02.145Z,98515.09
2023-02-02T19:25:29.400Z,98503.16
2023-02-02T19:27:56.457Z,98508.66
2023-02-02T19:30:24.200Z,98510.03
2023-02-02T19:32:51.310Z,98508.22
2023-02-02T19:35:20.865Z,98508.63
2023-02-02T19:37:48.751Z,98508.22
2023-02-02T19:40:18.845Z,98510.06
2023-02-02T19:42:49.952Z,98514.22
2023-02-02T19:45:20.891Z,98505.09
2023-02-02T19:47:48.283Z,98507.00
2023-02-02T19:50:18.677Z,98511.56
2023-02-02T19:52:46.947Z,98506.72
2023-02-02T19:55:24.285Z,98505.03
2023-02-02T19:57:52.707Z,98511.22
2023-02-02T20:00:20.734Z,98513.84
2023-02-02T20:03:04.562Z,98521.41
2023-02-02T20:05:35.588Z,98514.94
2023-02-02T20:08:08.587Z,98521.72
2023-02-02T20:10:40.240Z,98523.53
2023-02-02T20:13:20.730Z,98521.88
2023-02-02T20:15:48.576Z,98522.16
2023-02-02T20:18:21.799Z,98519.97
2023-02-02T20:20:53.361Z,98517.22
2023-02-02T20:23:26.947Z,98525.81
2023-02-02T20:25:54.011Z,98517.91
2023-02-02T20:28:34.879Z,98516.38
2023-02-02T20:31:03.196Z,98520.13
2023-02-02T20:33:30.281Z,98522.16
2023-02-02T20:35:57.340Z,98525.91
2023-02-02T20:38:28.926Z,98524.94
2023-02-02T20:40:56.523Z,98523.53
2023-02-02T20:43:23.362Z,98526.41
2023-02-02T20:45:50.420Z,98524.50
2023-02-02T20:48:17.672Z,98523.22
2023-02-02T20:50:46.824Z,98532.91
2023-02-02T20:53:16.633Z,98536.09
2023-02-02T20:55:44.830Z,98532.91
2023-02-02T20:58:12.021Z,98524.75
2023-02-02T21:00:39.487Z,98531.84
2023-02-02T21:03:06.420Z,98529.03
2023-02-02T21:05:33.285Z,98526.97
2023-02-02T21:08:00.167Z,98522.13
2023-02-02T21:10:27.437Z,98532.03
2023-02-02T21:12:54.740Z,98532.31
2023-02-02T21:15:21.576Z,98533.16
2023-02-02T21:17:48.435Z,98531.34
2023-02-02T21:20:15.320Z,98531.50
2023-02-02T21:22:42.288Z,98533.97
2023-02-02T21:25:10.056Z,98528.97
2023-02-02T21:27:37.742Z,98533.97
2023-02-02T21:30:05.167Z,98535.41
2023-02-02T21:32:33.265Z,98529.81
2023-02-02T21:35:00.215Z,98540.06
2023-02-02T21:37:27.229Z,98537.59
2023-02-02T21:39:57.306Z,98537.44
2023-02-02T21:42:24.696Z,98542.00
2023-02-02T21:44:54.291Z,98549.63
2023-02-02T21:47:35.340Z,98536.91
2023-02-02T21:50:11.895Z,98540.06
2023-02-02T21:52:38.760Z,98546.88
2023-02-02T21:55:24.417Z,98553.06
2023-02-02T21:57:51.475Z,98541.28
2023-02-02T22:00:28.939Z,98538.41
2023-02-02T22:02:56.037Z,98536.16
2023-02-02T22:05:26.532Z,98547.06
2023-02-02T22:07:56.875Z,98534.22
2023-02-02T22:10:35.402Z,98537.69
2023-02-02T22:13:11.340Z,98535.34
2023-02-02T22:15:39.054Z,98532.38
2023-02-02T22:18:21.876Z,98535.59
2023-02-02T22:20:53.421Z,98530.91
2023-02-02T22:23:21.906Z,98532.38
2023-02-02T22:25:50.012Z,98528.78
2023-02-02T22:28:22.299Z,98530.19
2023-02-02T22:30:53.045Z,98526.97
2023-02-02T22:33:20.061Z,98539.53
2023-02-02T22:35:47.174Z,98536.88
2023-02-02T22:38:18.425Z,98542.00
2023-02-02T22:40:45.744Z,98535.66
2023-02-02T22:43:13.621Z,98537.59
2023-02-02T22:45:40.678Z,98546.06
2023-02-02T22:48:07.762Z,98544.63
2023-02-02T22:50:35.311Z,98545.56
2023-02-02T22:53:02.933Z,98540.78
2023-02-02T22:55:30.372Z,98551.03
2023-02-02T22:57:57.641Z,98554.25
2023-02-02T23:00:26.826Z,98537.34
2023-02-02T23:02:54.547Z,98539.53
2023-02-02T23:05:22.799Z,98544.69
2023-02-02T23:07:50.248Z,98544.81
2023-02-02T23:10:18.483Z,98535.44
2023-02-02T23:12:45.699Z,98542.50
2023-02-02T23:15:12.951Z,98543.34
2023-02-02T23:17:40.440Z,98537.25
2023-02-02T23:20:09.030Z,98542.66
2023-02-02T23:22:36.160Z,98537.31
2023-02-02T23:25:03.265Z,98549.03
2023-02-02T23:27:30.574Z,98542.41
2023-02-02T23:29:57.529Z,98530.38
2023-02-02T23:32:24.607Z,98538.53
2023-02-02T23:34:51.498Z,98537.69
2023-02-02T23:37:18.781Z,98541.44
2023-02-02T23:39:45.676Z,98538.00
2023-02-02T23:42:12.620Z,98541.34
2023-02-02T23:44:39.594Z,98535.34
2023-02-02T23:47:06.479Z,98531.91
2023-02-02T23:49:33.376Z,98532.28
2023-02-02T23:52:00.541Z,98531.31
2023-02-02T23:54:27.878Z,98528.88
2023-02-02T23:56:55.457Z,98530.53
2023-02-02T23:59:22.412Z,98536.94
